ORI weather

Port Lions Airport
Port Lions, Alaska, United States

Public forecast

Using degrees Fahrenheit for public forecast. Weather courtesy of forecast.io.

METAR (pilot weather report)

Closest report is Kodiak Airport, 13.9 nm (25.7 km) SE. Retrieved 2019/09/18 07:53 UTC (33 minutes ago):

PADQ 180753Z 17006KT 10SM SCT026 SCT031 OVC060 14/12 A2944

TAF (pilot weather forecast)

Closest forecast is Kodiak Airport, 13.9 nm (25.7 km) SE. Retrieved 2019/09/18 06:42 UTC (2 hours ago):

TAF PADQ 180540Z 1806/1906 17011G20KT P6SM -SHRA FEW025 BKN050 OVC100 TEMPO 1806/1810 19008KT 4SM -SHRA BR BKN025 FM181900 20012G20KT P6SM -SHRA SCT020 BKN040